sensor_id;sensor_type;location;lat;lon;timestamp;P1;durP1;ratioP1;P2;durP2;ratioP2
18286;SDS011;9269;50.838;12.094;2023-04-16T00:02:01;15.07;;;13.53;;
18286;SDS011;9269;50.838;12.094;2023-04-16T00:04:31;14.27;;;12.77;;
18286;SDS011;9269;50.838;12.094;2023-04-16T00:07:02;14.00;;;12.00;;
18286;SDS011;9269;50.838;12.094;2023-04-16T00:09:30;12.57;;;11.37;;
18286;SDS011;9269;50.838;12.094;2023-04-16T00:11:59;12.17;;;10.93;;
18286;SDS011;9269;50.838;12.094;2023-04-16T00:14:28;12.20;;;10.90;;
18286;SDS011;9269;50.838;12.094;2023-04-16T00:16:56;12.67;;;11.23;;
18286;SDS011;9269;50.838;12.094;2023-04-16T00:19:25;11.77;;;10.67;;
18286;SDS011;9269;50.838;12.094;2023-04-16T00:21:54;13.60;;;11.30;;
18286;SDS011;9269;50.838;12.094;2023-04-16T00:24:23;11.87;;;10.63;;
18286;SDS011;9269;50.838;12.094;2023-04-16T00:26:51;11.90;;;10.57;;
18286;SDS011;9269;50.838;12.094;2023-04-16T00:29:20;10.80;;;9.70;;
18286;SDS011;9269;50.838;12.094;2023-04-16T00:31:48;10.87;;;9.77;;
18286;SDS011;9269;50.838;12.094;2023-04-16T00:34:17;10.93;;;9.83;;
18286;SDS011;9269;50.838;12.094;2023-04-16T00:36:45;10.97;;;9.87;;
18286;SDS011;9269;50.838;12.094;2023-04-16T00:39:15;11.50;;;10.30;;
18286;SDS011;9269;50.838;12.094;2023-04-16T00:41:43;17.67;;;10.37;;
18286;SDS011;9269;50.838;12.094;2023-04-16T00:44:12;37.00;;;12.50;;
18286;SDS011;9269;50.838;12.094;2023-04-16T00:46:41;13.00;;;11.70;;
18286;SDS011;9269;50.838;12.094;2023-04-16T00:49:10;15.43;;;11.37;;
18286;SDS011;9269;50.838;12.094;2023-04-16T00:51:38;12.63;;;10.97;;
18286;SDS011;9269;50.838;12.094;2023-04-16T00:54:07;13.97;;;12.10;;
18286;SDS011;9269;50.838;12.094;2023-04-16T00:56:36;15.17;;;12.07;;
18286;SDS011;9269;50.838;12.094;2023-04-16T00:59:06;14.17;;;12.77;;
18286;SDS011;9269;50.838;12.094;2023-04-16T01:01:36;14.37;;;12.73;;
18286;SDS011;9269;50.838;12.094;2023-04-16T01:04:04;15.10;;;12.97;;
18286;SDS011;9269;50.838;12.094;2023-04-16T01:06:34;15.23;;;12.90;;
18286;SDS011;9269;50.838;12.094;2023-04-16T01:09:02;14.53;;;12.17;;
18286;SDS011;9269;50.838;12.094;2023-04-16T01:11:31;15.03;;;13.13;;
18286;SDS011;9269;50.838;12.094;2023-04-16T01:14:00;13.77;;;12.37;;
18286;SDS011;9269;50.838;12.094;2023-04-16T01:16:28;15.73;;;13.87;;
18286;SDS011;9269;50.838;12.094;2023-04-16T01:18:57;13.93;;;11.37;;
18286;SDS011;9269;50.838;12.094;2023-04-16T01:21:27;15.33;;;12.50;;
18286;SDS011;9269;50.838;12.094;2023-04-16T01:23:55;15.57;;;12.57;;
18286;SDS011;9269;50.838;12.094;2023-04-16T01:26:24;16.03;;;13.20;;
18286;SDS011;9269;50.838;12.094;2023-04-16T01:28:52;18.67;;;13.07;;
18286;SDS011;9269;50.838;12.094;2023-04-16T01:31:21;16.20;;;13.37;;
18286;SDS011;9269;50.838;12.094;2023-04-16T01:33:49;16.37;;;12.87;;
18286;SDS011;9269;50.838;12.094;2023-04-16T01:36:17;13.87;;;12.30;;
18286;SDS011;9269;50.838;12.094;2023-04-16T01:38:47;16.30;;;12.53;;
18286;SDS011;9269;50.838;12.094;2023-04-16T01:41:16;13.83;;;11.67;;
18286;SDS011;9269;50.838;12.094;2023-04-16T01:43:45;13.07;;;11.37;;
18286;SDS011;9269;50.838;12.094;2023-04-16T01:46:17;14.90;;;11.73;;
18286;SDS011;9269;50.838;12.094;2023-04-16T01:48:47;12.27;;;10.80;;
18286;SDS011;9269;50.838;12.094;2023-04-16T01:51:16;11.73;;;10.53;;
18286;SDS011;9269;50.838;12.094;2023-04-16T01:53:44;14.20;;;10.97;;
18286;SDS011;9269;50.838;12.094;2023-04-16T01:56:14;12.63;;;11.17;;
18286;SDS011;9269;50.838;12.094;2023-04-16T01:58:42;12.07;;;10.87;;
18286;SDS011;9269;50.838;12.094;2023-04-16T02:01:12;12.40;;;10.70;;
18286;SDS011;9269;50.838;12.094;2023-04-16T02:03:41;11.93;;;10.73;;
18286;SDS011;9269;50.838;12.094;2023-04-16T02:06:09;11.30;;;10.10;;
18286;SDS011;9269;50.838;12.094;2023-04-16T02:08:40;11.73;;;10.07;;
18286;SDS011;9269;50.838;12.094;2023-04-16T02:11:08;10.50;;;9.40;;
18286;SDS011;9269;50.838;12.094;2023-04-16T02:13:38;11.70;;;10.50;;
18286;SDS011;9269;50.838;12.094;2023-04-16T02:16:07;11.83;;;10.73;;
18286;SDS011;9269;50.838;12.094;2023-04-16T02:18:37;11.43;;;10.27;;
18286;SDS011;9269;50.838;12.094;2023-04-16T02:21:08;11.47;;;9.40;;
18286;SDS011;9269;50.838;12.094;2023-04-16T02:23:37;11.63;;;10.53;;
18286;SDS011;9269;50.838;12.094;2023-04-16T02:26:08;11.03;;;9.50;;
18286;SDS011;9269;50.838;12.094;2023-04-16T02:28:40;10.77;;;9.67;;
18286;SDS011;9269;50.838;12.094;2023-04-16T02:31:08;10.10;;;9.10;;
18286;SDS011;9269;50.838;12.094;2023-04-16T02:33:36;10.50;;;9.40;;
18286;SDS011;9269;50.838;12.094;2023-04-16T02:36:05;10.53;;;9.43;;
18286;SDS011;9269;50.838;12.094;2023-04-16T02:38:36;10.07;;;8.97;;
18286;SDS011;9269;50.838;12.094;2023-04-16T02:41:05;10.70;;;9.60;;
18286;SDS011;9269;50.838;12.094;2023-04-16T02:43:33;9.87;;;8.87;;
18286;SDS011;9269;50.838;12.094;2023-04-16T02:46:04;10.67;;;9.17;;
18286;SDS011;9269;50.838;12.094;2023-04-16T02:48:33;9.80;;;8.80;;
18286;SDS011;9269;50.838;12.094;2023-04-16T02:51:02;11.13;;;10.03;;
18286;SDS011;9269;50.838;12.094;2023-04-16T02:53:31;10.93;;;9.07;;
18286;SDS011;9269;50.838;12.094;2023-04-16T02:55:59;9.90;;;8.77;;
18286;SDS011;9269;50.838;12.094;2023-04-16T02:58:27;10.83;;;9.73;;
18286;SDS011;9269;50.838;12.094;2023-04-16T03:00:56;9.83;;;8.83;;
18286;SDS011;9269;50.838;12.094;2023-04-16T03:03:25;10.87;;;9.77;;
18286;SDS011;9269;50.838;12.094;2023-04-16T03:05:54;10.57;;;9.43;;
18286;SDS011;9269;50.838;12.094;2023-04-16T03:08:23;11.00;;;9.70;;
18286;SDS011;9269;50.838;12.094;2023-04-16T03:10:52;10.87;;;9.20;;
18286;SDS011;9269;50.838;12.094;2023-04-16T03:13:20;10.80;;;9.70;;
18286;SDS011;9269;50.838;12.094;2023-04-16T03:15:49;9.80;;;8.87;;
18286;SDS011;9269;50.838;12.094;2023-04-16T03:18:17;9.83;;;8.83;;
18286;SDS011;9269;50.838;12.094;2023-04-16T03:20:51;11.17;;;10.07;;
18286;SDS011;9269;50.838;12.094;2023-04-16T03:23:19;10.30;;;9.20;;
18286;SDS011;9269;50.838;12.094;2023-04-16T03:25:49;10.20;;;9.13;;
18286;SDS011;9269;50.838;12.094;2023-04-16T03:28:17;10.63;;;9.60;;
18286;SDS011;9269;50.838;12.094;2023-04-16T03:30:50;12.10;;;10.10;;
18286;SDS011;9269;50.838;12.094;2023-04-16T03:33:19;12.27;;;10.23;;
18286;SDS011;9269;50.838;12.094;2023-04-16T03:35:55;11.87;;;10.10;;
18286;SDS011;9269;50.838;12.094;2023-04-16T03:38:24;12.73;;;11.13;;
18286;SDS011;9269;50.838;12.094;2023-04-16T03:40:52;12.80;;;10.90;;
18286;SDS011;9269;50.838;12.094;2023-04-16T03:43:21;13.53;;;11.70;;
18286;SDS011;9269;50.838;12.094;2023-04-16T03:45:49;13.37;;;11.53;;
18286;SDS011;9269;50.838;12.094;2023-04-16T03:48:17;13.90;;;11.37;;
18286;SDS011;9269;50.838;12.094;2023-04-16T03:50:46;16.00;;;13.23;;
18286;SDS011;9269;50.838;12.094;2023-04-16T03:53:17;14.73;;;12.43;;
18286;SDS011;9269;50.838;12.094;2023-04-16T03:55:48;14.57;;;12.47;;
18286;SDS011;9269;50.838;12.094;2023-04-16T03:58:17;17.07;;;12.93;;
18286;SDS011;9269;50.838;12.094;2023-04-16T04:00:45;14.97;;;11.87;;
18286;SDS011;9269;50.838;12.094;2023-04-16T04:03:14;14.03;;;12.40;;
18286;SDS011;9269;50.838;12.094;2023-04-16T04:05:44;13.93;;;11.07;;
18286;SDS011;9269;50.838;12.094;2023-04-16T04:08:13;14.13;;;11.70;;
18286;SDS011;9269;50.838;12.094;2023-04-16T04:10:42;14.00;;;11.87;;
18286;SDS011;9269;50.838;12.094;2023-04-16T04:13:11;12.87;;;10.93;;
18286;SDS011;9269;50.838;12.094;2023-04-16T04:15:39;12.83;;;11.10;;
18286;SDS011;9269;50.838;12.094;2023-04-16T04:18:10;12.50;;;10.10;;
18286;SDS011;9269;50.838;12.094;2023-04-16T04:20:38;12.30;;;10.73;;
18286;SDS011;9269;50.838;12.094;2023-04-16T04:23:07;11.77;;;10.57;;
18286;SDS011;9269;50.838;12.094;2023-04-16T04:25:36;12.20;;;10.67;;
18286;SDS011;9269;50.838;12.094;2023-04-16T04:28:05;13.03;;;11.40;;
18286;SDS011;9269;50.838;12.094;2023-04-16T04:30:34;14.30;;;12.40;;
18286;SDS011;9269;50.838;12.094;2023-04-16T04:33:02;11.90;;;10.57;;
18286;SDS011;9269;50.838;12.094;2023-04-16T04:35:31;14.47;;;10.83;;
18286;SDS011;9269;50.838;12.094;2023-04-16T04:38:04;12.97;;;10.33;;
18286;SDS011;9269;50.838;12.094;2023-04-16T04:40:32;13.07;;;10.93;;
18286;SDS011;9269;50.838;12.094;2023-04-16T04:43:01;12.17;;;10.97;;
18286;SDS011;9269;50.838;12.094;2023-04-16T04:45:31;12.60;;;11.23;;
18286;SDS011;9269;50.838;12.094;2023-04-16T04:47:59;12.67;;;10.47;;
18286;SDS011;9269;50.838;12.094;2023-04-16T04:50:27;14.17;;;11.30;;
18286;SDS011;9269;50.838;12.094;2023-04-16T04:52:56;12.63;;;10.83;;
18286;SDS011;9269;50.838;12.094;2023-04-16T04:55:24;12.00;;;10.70;;
18286;SDS011;9269;50.838;12.094;2023-04-16T04:57:53;13.40;;;11.20;;
18286;SDS011;9269;50.838;12.094;2023-04-16T05:00:21;12.90;;;11.20;;
18286;SDS011;9269;50.838;12.094;2023-04-16T05:02:51;12.90;;;11.07;;
18286;SDS011;9269;50.838;12.094;2023-04-16T05:05:19;14.17;;;10.70;;
18286;SDS011;9269;50.838;12.094;2023-04-16T05:07:48;11.03;;;9.93;;
18286;SDS011;9269;50.838;12.094;2023-04-16T05:10:16;14.80;;;10.90;;
18286;SDS011;9269;50.838;12.094;2023-04-16T05:12:45;12.43;;;11.13;;
18286;SDS011;9269;50.838;12.094;2023-04-16T05:15:15;12.00;;;10.77;;
18286;SDS011;9269;50.838;12.094;2023-04-16T05:17:44;11.90;;;10.57;;
18286;SDS011;9269;50.838;12.094;2023-04-16T05:20:13;12.80;;;11.00;;
18286;SDS011;9269;50.838;12.094;2023-04-16T05:22:42;11.90;;;10.43;;
18286;SDS011;9269;50.838;12.094;2023-04-16T05:25:10;12.33;;;10.33;;
18286;SDS011;9269;50.838;12.094;2023-04-16T05:27:39;10.67;;;9.53;;
18286;SDS011;9269;50.838;12.094;2023-04-16T05:30:07;11.80;;;9.90;;
18286;SDS011;9269;50.838;12.094;2023-04-16T05:32:37;11.23;;;10.10;;
18286;SDS011;9269;50.838;12.094;2023-04-16T05:35:06;11.83;;;10.50;;
18286;SDS011;9269;50.838;12.094;2023-04-16T05:37:36;12.10;;;10.37;;
18286;SDS011;9269;50.838;12.094;2023-04-16T05:40:05;13.13;;;10.73;;
18286;SDS011;9269;50.838;12.094;2023-04-16T05:42:35;11.60;;;10.43;;
18286;SDS011;9269;50.838;12.094;2023-04-16T05:45:03;12.57;;;11.20;;
18286;SDS011;9269;50.838;12.094;2023-04-16T05:47:33;15.77;;;13.40;;
18286;SDS011;9269;50.838;12.094;2023-04-16T05:50:01;16.10;;;14.20;;
18286;SDS011;9269;50.838;12.094;2023-04-16T05:52:30;15.13;;;12.53;;
18286;SDS011;9269;50.838;12.094;2023-04-16T05:54:59;14.30;;;12.77;;
18286;SDS011;9269;50.838;12.094;2023-04-16T05:57:28;13.70;;;12.17;;
18286;SDS011;9269;50.838;12.094;2023-04-16T05:59:56;13.63;;;11.93;;
18286;SDS011;9269;50.838;12.094;2023-04-16T06:02:24;13.60;;;11.87;;
18286;SDS011;9269;50.838;12.094;2023-04-16T06:04:53;14.63;;;12.47;;
18286;SDS011;9269;50.838;12.094;2023-04-16T06:07:21;15.07;;;12.07;;
18286;SDS011;9269;50.838;12.094;2023-04-16T06:09:50;13.07;;;11.50;;
18286;SDS011;9269;50.838;12.094;2023-04-16T06:12:20;12.20;;;10.50;;
18286;SDS011;9269;50.838;12.094;2023-04-16T06:14:49;13.63;;;11.43;;
18286;SDS011;9269;50.838;12.094;2023-04-16T06:17:17;12.77;;;11.00;;
18286;SDS011;9269;50.838;12.094;2023-04-16T06:19:46;11.93;;;10.17;;
18286;SDS011;9269;50.838;12.094;2023-04-16T06:22:14;12.57;;;11.20;;
18286;SDS011;9269;50.838;12.094;2023-04-16T06:24:43;12.97;;;10.97;;
18286;SDS011;9269;50.838;12.094;2023-04-16T06:27:11;13.83;;;11.00;;
18286;SDS011;9269;50.838;12.094;2023-04-16T06:29:41;13.67;;;11.83;;
18286;SDS011;9269;50.838;12.094;2023-04-16T06:32:09;12.97;;;11.13;;
18286;SDS011;9269;50.838;12.094;2023-04-16T06:34:38;13.07;;;10.77;;
18286;SDS011;9269;50.838;12.094;2023-04-16T06:37:07;12.07;;;10.87;;
18286;SDS011;9269;50.838;12.094;2023-04-16T06:39:36;12.77;;;10.80;;
18286;SDS011;9269;50.838;12.094;2023-04-16T06:42:05;14.17;;;12.67;;
18286;SDS011;9269;50.838;12.094;2023-04-16T06:44:34;15.70;;;14.00;;
18286;SDS011;9269;50.838;12.094;2023-04-16T06:47:04;16.00;;;13.13;;
18286;SDS011;9269;50.838;12.094;2023-04-16T06:49:33;14.83;;;13.23;;
18286;SDS011;9269;50.838;12.094;2023-04-16T06:52:01;15.97;;;13.10;;
18286;SDS011;9269;50.838;12.094;2023-04-16T06:54:32;14.77;;;12.87;;
18286;SDS011;9269;50.838;12.094;2023-04-16T06:57:20;14.70;;;12.13;;
18286;SDS011;9269;50.838;12.094;2023-04-16T06:59:48;13.90;;;12.40;;
18286;SDS011;9269;50.838;12.094;2023-04-16T07:02:19;13.70;;;12.03;;
18286;SDS011;9269;50.838;12.094;2023-04-16T07:04:48;13.80;;;12.30;;
18286;SDS011;9269;50.838;12.094;2023-04-16T07:07:17;13.33;;;12.03;;
18286;SDS011;9269;50.838;12.094;2023-04-16T07:09:46;13.50;;;11.67;;
18286;SDS011;9269;50.838;12.094;2023-04-16T07:12:14;13.30;;;11.90;;
18286;SDS011;9269;50.838;12.094;2023-04-16T07:14:42;14.03;;;12.53;;
18286;SDS011;9269;50.838;12.094;2023-04-16T07:17:11;13.10;;;11.80;;
18286;SDS011;9269;50.838;12.094;2023-04-16T07:19:40;14.87;;;12.73;;
18286;SDS011;9269;50.838;12.094;2023-04-16T07:22:09;13.70;;;12.20;;
18286;SDS011;9269;50.838;12.094;2023-04-16T07:24:37;13.50;;;12.07;;
18286;SDS011;9269;50.838;12.094;2023-04-16T07:27:06;14.07;;;12.57;;
18286;SDS011;9269;50.838;12.094;2023-04-16T07:29:34;14.83;;;12.57;;
18286;SDS011;9269;50.838;12.094;2023-04-16T07:32:02;15.40;;;12.50;;
18286;SDS011;9269;50.838;12.094;2023-04-16T07:34:31;17.97;;;14.37;;
18286;SDS011;9269;50.838;12.094;2023-04-16T07:37:01;19.23;;;16.47;;
18286;SDS011;9269;50.838;12.094;2023-04-16T07:39:30;22.33;;;20.00;;
18286;SDS011;9269;50.838;12.094;2023-04-16T07:41:59;19.57;;;17.47;;
18286;SDS011;9269;50.838;12.094;2023-04-16T07:44:31;21.50;;;18.90;;
18286;SDS011;9269;50.838;12.094;2023-04-16T07:46:59;22.03;;;19.53;;
18286;SDS011;9269;50.838;12.094;2023-04-16T07:49:31;21.57;;;17.97;;
18286;SDS011;9269;50.838;12.094;2023-04-16T07:51:59;19.00;;;15.83;;
18286;SDS011;9269;50.838;12.094;2023-04-16T07:54:29;18.17;;;15.33;;
18286;SDS011;9269;50.838;12.094;2023-04-16T07:56:58;19.53;;;16.30;;
18286;SDS011;9269;50.838;12.094;2023-04-16T07:59:26;16.37;;;14.47;;
18286;SDS011;9269;50.838;12.094;2023-04-16T08:01:58;16.57;;;13.97;;
18286;SDS011;9269;50.838;12.094;2023-04-16T08:04:27;16.97;;;14.27;;
18286;SDS011;9269;50.838;12.094;2023-04-16T08:07:09;17.93;;;14.30;;
18286;SDS011;9269;50.838;12.094;2023-04-16T08:09:45;14.57;;;12.97;;
18286;SDS011;9269;50.838;12.094;2023-04-16T08:12:14;15.43;;;12.83;;
18286;SDS011;9269;50.838;12.094;2023-04-16T08:14:58;14.83;;;11.57;;
18286;SDS011;9269;50.838;12.094;2023-04-16T08:17:27;11.90;;;10.60;;
18286;SDS011;9269;50.838;12.094;2023-04-16T08:19:55;11.63;;;10.43;;
18286;SDS011;9269;50.838;12.094;2023-04-16T08:22:25;11.17;;;9.97;;
18286;SDS011;9269;50.838;12.094;2023-04-16T08:24:54;12.13;;;10.27;;
18286;SDS011;9269;50.838;12.094;2023-04-16T08:27:22;10.27;;;9.17;;
18286;SDS011;9269;50.838;12.094;2023-04-16T08:29:51;11.73;;;10.07;;
18286;SDS011;9269;50.838;12.094;2023-04-16T08:32:19;9.90;;;8.90;;
18286;SDS011;9269;50.838;12.094;2023-04-16T08:34:48;10.83;;;9.67;;
18286;SDS011;9269;50.838;12.094;2023-04-16T08:37:24;10.87;;;9.70;;
18286;SDS011;9269;50.838;12.094;2023-04-16T08:39:54;10.43;;;9.33;;
18286;SDS011;9269;50.838;12.094;2023-04-16T08:42:23;11.10;;;10.00;;
18286;SDS011;9269;50.838;12.094;2023-04-16T08:45:03;11.70;;;10.33;;
18286;SDS011;9269;50.838;12.094;2023-04-16T08:47:47;10.90;;;9.83;;
18286;SDS011;9269;50.838;12.094;2023-04-16T08:50:18;9.97;;;8.93;;
18286;SDS011;9269;50.838;12.094;2023-04-16T08:53:04;9.87;;;8.87;;
18286;SDS011;9269;50.838;12.094;2023-04-16T08:55:35;10.67;;;9.57;;
18286;SDS011;9269;50.838;12.094;2023-04-16T08:58:07;10.50;;;9.33;;
18286;SDS011;9269;50.838;12.094;2023-04-16T09:00:55;11.27;;;9.80;;
18286;SDS011;9269;50.838;12.094;2023-04-16T09:03:24;9.50;;;8.60;;
18286;SDS011;9269;50.838;12.094;2023-04-16T09:05:53;9.37;;;8.47;;
18286;SDS011;9269;50.838;12.094;2023-04-16T09:08:26;7.97;;;7.27;;
18286;SDS011;9269;50.838;12.094;2023-04-16T09:10:58;9.87;;;8.07;;
18286;SDS011;9269;50.838;12.094;2023-04-16T09:13:26;12.20;;;8.30;;
18286;SDS011;9269;50.838;12.094;2023-04-16T09:15:57;7.70;;;7.00;;
18286;SDS011;9269;50.838;12.094;2023-04-16T09:18:32;6.47;;;5.87;;
18286;SDS011;9269;50.838;12.094;2023-04-16T09:21:00;6.57;;;5.97;;
18286;SDS011;9269;50.838;12.094;2023-04-16T09:23:31;6.40;;;5.80;;
18286;SDS011;9269;50.838;12.094;2023-04-16T09:26:00;7.00;;;6.30;;
18286;SDS011;9269;50.838;12.094;2023-04-16T09:28:38;5.90;;;5.40;;
18286;SDS011;9269;50.838;12.094;2023-04-16T09:31:08;5.00;;;4.53;;
18286;SDS011;9269;50.838;12.094;2023-04-16T09:33:39;5.47;;;4.90;;
18286;SDS011;9269;50.838;12.094;2023-04-16T09:36:09;7.27;;;5.57;;
18286;SDS011;9269;50.838;12.094;2023-04-16T09:38:46;5.50;;;5.00;;
18286;SDS011;9269;50.838;12.094;2023-04-16T09:41:16;5.80;;;5.20;;
18286;SDS011;9269;50.838;12.094;2023-04-16T09:43:48;6.67;;;5.97;;
18286;SDS011;9269;50.838;12.094;2023-04-16T09:46:24;6.60;;;6.00;;
18286;SDS011;9269;50.838;12.094;2023-04-16T09:48:58;7.37;;;6.67;;
18286;SDS011;9269;50.838;12.094;2023-04-16T09:51:47;7.07;;;6.37;;
18286;SDS011;9269;50.838;12.094;2023-04-16T09:54:21;7.07;;;6.37;;
18286;SDS011;9269;50.838;12.094;2023-04-16T09:56:51;6.60;;;6.00;;
18286;SDS011;9269;50.838;12.094;2023-04-16T09:59:26;7.20;;;6.07;;
18286;SDS011;9269;50.838;12.094;2023-04-16T10:02:06;5.90;;;5.30;;
18286;SDS011;9269;50.838;12.094;2023-04-16T10:04:47;5.47;;;4.97;;
18286;SDS011;9269;50.838;12.094;2023-04-16T10:07:17;5.97;;;4.90;;
18286;SDS011;9269;50.838;12.094;2023-04-16T10:09:48;5.60;;;4.67;;
18286;SDS011;9269;50.838;12.094;2023-04-16T10:12:18;5.33;;;4.83;;
18286;SDS011;9269;50.838;12.094;2023-04-16T10:14:47;5.67;;;5.17;;
18286;SDS011;9269;50.838;12.094;2023-04-16T10:17:16;6.37;;;5.77;;
18286;SDS011;9269;50.838;12.094;2023-04-16T10:19:46;5.73;;;5.23;;
18286;SDS011;9269;50.838;12.094;2023-04-16T10:22:35;6.40;;;5.80;;
18286;SDS011;9269;50.838;12.094;2023-04-16T10:25:07;6.07;;;5.53;;
18286;SDS011;9269;50.838;12.094;2023-04-16T10:27:37;5.97;;;5.00;;
18286;SDS011;9269;50.838;12.094;2023-04-16T10:30:07;5.67;;;5.03;;
18286;SDS011;9269;50.838;12.094;2023-04-16T10:32:37;6.13;;;5.50;;
18286;SDS011;9269;50.838;12.094;2023-04-16T10:35:06;5.87;;;5.27;;
18286;SDS011;9269;50.838;12.094;2023-04-16T10:37:36;6.00;;;5.40;;
18286;SDS011;9269;50.838;12.094;2023-04-16T10:42:56;5.13;;;4.73;;
18286;SDS011;9269;50.838;12.094;2023-04-16T10:45:25;5.37;;;4.87;;
18286;SDS011;9269;50.838;12.094;2023-04-16T10:47:57;4.43;;;3.90;;
18286;SDS011;9269;50.838;12.094;2023-04-16T10:50:33;4.53;;;4.07;;
18286;SDS011;9269;50.838;12.094;2023-04-16T10:53:18;4.57;;;4.17;;
18286;SDS011;9269;50.838;12.094;2023-04-16T10:58:39;5.73;;;5.23;;
18286;SDS011;9269;50.838;12.094;2023-04-16T11:01:11;6.40;;;5.90;;
18286;SDS011;9269;50.838;12.094;2023-04-16T11:03:43;6.87;;;6.27;;
18286;SDS011;9269;50.838;12.094;2023-04-16T11:06:14;7.17;;;6.57;;
18286;SDS011;9269;50.838;12.094;2023-04-16T11:08:45;6.73;;;6.13;;
18286;SDS011;9269;50.838;12.094;2023-04-16T11:11:22;6.87;;;6.27;;
18286;SDS011;9269;50.838;12.094;2023-04-16T11:13:53;7.17;;;6.57;;
18286;SDS011;9269;50.838;12.094;2023-04-16T11:16:23;6.23;;;5.73;;
18286;SDS011;9269;50.838;12.094;2023-04-16T11:18:53;6.57;;;5.97;;
18286;SDS011;9269;50.838;12.094;2023-04-16T11:21:22;7.50;;;6.70;;
18286;SDS011;9269;50.838;12.094;2023-04-16T11:23:52;6.57;;;6.07;;
18286;SDS011;9269;50.838;12.094;2023-04-16T11:26:24;6.37;;;5.87;;
18286;SDS011;9269;50.838;12.094;2023-04-16T11:28:54;6.67;;;6.07;;
18286;SDS011;9269;50.838;12.094;2023-04-16T11:31:24;6.47;;;5.97;;
18286;SDS011;9269;50.838;12.094;2023-04-16T11:33:55;6.17;;;5.57;;
18286;SDS011;9269;50.838;12.094;2023-04-16T11:36:43;6.50;;;5.93;;
18286;SDS011;9269;50.838;12.094;2023-04-16T11:39:13;7.13;;;6.53;;
18286;SDS011;9269;50.838;12.094;2023-04-16T11:41:43;7.17;;;6.57;;
18286;SDS011;9269;50.838;12.094;2023-04-16T11:44:18;8.07;;;7.30;;
18286;SDS011;9269;50.838;12.094;2023-04-16T11:46:47;8.37;;;7.67;;
18286;SDS011;9269;50.838;12.094;2023-04-16T11:49:16;7.60;;;7.00;;
18286;SDS011;9269;50.838;12.094;2023-04-16T11:51:53;8.60;;;7.87;;
18286;SDS011;9269;50.838;12.094;2023-04-16T11:54:22;9.53;;;8.73;;
18286;SDS011;9269;50.838;12.094;2023-04-16T11:56:52;10.03;;;9.13;;
18286;SDS011;9269;50.838;12.094;2023-04-16T11:59:21;9.73;;;8.93;;
18286;SDS011;9269;50.838;12.094;2023-04-16T12:01:51;11.03;;;10.03;;
18286;SDS011;9269;50.838;12.094;2023-04-16T12:04:22;9.70;;;8.80;;
18286;SDS011;9269;50.838;12.094;2023-04-16T12:07:10;9.33;;;8.53;;
18286;SDS011;9269;50.838;12.094;2023-04-16T12:09:46;9.33;;;8.57;;
18286;SDS011;9269;50.838;12.094;2023-04-16T12:12:26;9.73;;;8.93;;
18286;SDS011;9269;50.838;12.094;2023-04-16T12:14:58;9.50;;;8.70;;
18286;SDS011;9269;50.838;12.094;2023-04-16T12:17:30;10.73;;;9.83;;
18286;SDS011;9269;50.838;12.094;2023-04-16T12:20:10;9.67;;;8.77;;
18286;SDS011;9269;50.838;12.094;2023-04-16T12:22:57;8.10;;;7.40;;
18286;SDS011;9269;50.838;12.094;2023-04-16T12:25:27;9.57;;;8.67;;
18286;SDS011;9269;50.838;12.094;2023-04-16T12:27:59;9.70;;;8.73;;
18286;SDS011;9269;50.838;12.094;2023-04-16T12:30:28;8.67;;;7.97;;
18286;SDS011;9269;50.838;12.094;2023-04-16T12:33:12;11.17;;;10.03;;
18286;SDS011;9269;50.838;12.094;2023-04-16T12:35:42;9.60;;;8.70;;
18286;SDS011;9269;50.838;12.094;2023-04-16T12:38:11;9.77;;;8.97;;
18286;SDS011;9269;50.838;12.094;2023-04-16T12:40:42;10.87;;;9.97;;
18286;SDS011;9269;50.838;12.094;2023-04-16T12:43:14;10.27;;;9.37;;
18286;SDS011;9269;50.838;12.094;2023-04-16T12:45:42;10.57;;;9.47;;
18286;SDS011;9269;50.838;12.094;2023-04-16T12:48:11;9.43;;;8.63;;
18286;SDS011;9269;50.838;12.094;2023-04-16T12:50:39;11.20;;;10.17;;
18286;SDS011;9269;50.838;12.094;2023-04-16T12:53:12;11.47;;;10.33;;
18286;SDS011;9269;50.838;12.094;2023-04-16T12:55:41;10.87;;;9.87;;
18286;SDS011;9269;50.838;12.094;2023-04-16T12:58:11;10.90;;;9.83;;
18286;SDS011;9269;50.838;12.094;2023-04-16T13:00:42;8.97;;;8.17;;
18286;SDS011;9269;50.838;12.094;2023-04-16T13:03:10;9.23;;;8.33;;
18286;SDS011;9269;50.838;12.094;2023-04-16T13:05:39;9.10;;;8.30;;
18286;SDS011;9269;50.838;12.094;2023-04-16T13:08:08;11.10;;;10.10;;
18286;SDS011;9269;50.838;12.094;2023-04-16T13:10:37;12.33;;;11.23;;
18286;SDS011;9269;50.838;12.094;2023-04-16T13:13:06;13.27;;;12.17;;
18286;SDS011;9269;50.838;12.094;2023-04-16T13:15:36;12.73;;;11.63;;
18286;SDS011;9269;50.838;12.094;2023-04-16T13:18:06;12.93;;;11.83;;
18286;SDS011;9269;50.838;12.094;2023-04-16T13:20:35;14.00;;;12.80;;
18286;SDS011;9269;50.838;12.094;2023-04-16T13:23:16;13.60;;;12.40;;
18286;SDS011;9269;50.838;12.094;2023-04-16T13:25:46;13.07;;;11.87;;
18286;SDS011;9269;50.838;12.094;2023-04-16T13:28:16;14.47;;;13.17;;
18286;SDS011;9269;50.838;12.094;2023-04-16T13:30:46;12.57;;;11.47;;
18286;SDS011;9269;50.838;12.094;2023-04-16T13:33:15;12.27;;;11.27;;
18286;SDS011;9269;50.838;12.094;2023-04-16T13:35:47;13.27;;;11.97;;
18286;SDS011;9269;50.838;12.094;2023-04-16T13:38:16;13.77;;;12.37;;
18286;SDS011;9269;50.838;12.094;2023-04-16T13:41:08;16.17;;;12.20;;
18286;SDS011;9269;50.838;12.094;2023-04-16T13:43:52;13.47;;;12.17;;
18286;SDS011;9269;50.838;12.094;2023-04-16T13:46:26;14.97;;;13.57;;
18286;SDS011;9269;50.838;12.094;2023-04-16T13:48:56;13.37;;;12.17;;
18286;SDS011;9269;50.838;12.094;2023-04-16T13:51:25;14.03;;;12.73;;
18286;SDS011;9269;50.838;12.094;2023-04-16T13:53:54;14.50;;;13.10;;
18286;SDS011;9269;50.838;12.094;2023-04-16T13:56:23;16.03;;;14.53;;
18286;SDS011;9269;50.838;12.094;2023-04-16T13:58:52;14.77;;;13.33;;
18286;SDS011;9269;50.838;12.094;2023-04-16T14:01:21;16.77;;;15.07;;
18286;SDS011;9269;50.838;12.094;2023-04-16T14:03:51;20.90;;;18.67;;
18286;SDS011;9269;50.838;12.094;2023-04-16T14:06:20;19.43;;;17.33;;
18286;SDS011;9269;50.838;12.094;2023-04-16T14:08:49;17.17;;;15.47;;
18286;SDS011;9269;50.838;12.094;2023-04-16T14:11:17;16.90;;;15.23;;
18286;SDS011;9269;50.838;12.094;2023-04-16T14:13:46;16.17;;;14.57;;
18286;SDS011;9269;50.838;12.094;2023-04-16T14:16:15;14.13;;;12.80;;
18286;SDS011;9269;50.838;12.094;2023-04-16T14:18:43;14.87;;;13.27;;
18286;SDS011;9269;50.838;12.094;2023-04-16T14:21:14;13.17;;;11.93;;
18286;SDS011;9269;50.838;12.094;2023-04-16T14:23:42;12.93;;;11.63;;
18286;SDS011;9269;50.838;12.094;2023-04-16T14:26:11;13.33;;;11.93;;
18286;SDS011;9269;50.838;12.094;2023-04-16T14:28:40;14.10;;;12.70;;
18286;SDS011;9269;50.838;12.094;2023-04-16T14:31:15;12.57;;;11.27;;
18286;SDS011;9269;50.838;12.094;2023-04-16T14:33:46;12.57;;;11.27;;
18286;SDS011;9269;50.838;12.094;2023-04-16T14:36:16;11.23;;;10.10;;
18286;SDS011;9269;50.838;12.094;2023-04-16T14:38:45;11.40;;;10.27;;
18286;SDS011;9269;50.838;12.094;2023-04-16T14:41:14;13.00;;;11.47;;
18286;SDS011;9269;50.838;12.094;2023-04-16T14:43:43;11.63;;;10.43;;
18286;SDS011;9269;50.838;12.094;2023-04-16T14:46:12;11.87;;;10.70;;
18286;SDS011;9269;50.838;12.094;2023-04-16T14:48:43;11.37;;;10.27;;
18286;SDS011;9269;50.838;12.094;2023-04-16T14:51:12;11.07;;;9.97;;
18286;SDS011;9269;50.838;12.094;2023-04-16T14:53:42;11.43;;;10.23;;
18286;SDS011;9269;50.838;12.094;2023-04-16T14:56:11;11.30;;;10.20;;